createdAt,value
2023-01-13T00:00:43.415Z,100082.41
2023-01-13T00:03:41.863Z,100085.17
2023-01-13T00:06:31.746Z,100083.39
2023-01-13T00:09:21.448Z,100081.15
2023-01-13T00:12:12.773Z,100081.80
2023-01-13T00:15:03.134Z,100079.74
2023-01-13T00:18:04.991Z,100078.89
2023-01-13T00:20:50.508Z,100080.48
2023-01-13T00:23:40.422Z,100080.48
2023-01-13T00:26:33.477Z,100084.83
2023-01-13T00:29:29.553Z,100083.33
2023-01-13T00:32:19.339Z,100077.28
2023-01-13T00:35:14.753Z,100073.80
2023-01-13T00:38:04.917Z,100075.84
2023-01-13T00:41:03.415Z,100072.14
2023-01-13T00:44:09.591Z,100072.90
2023-01-13T00:47:07.136Z,100071.53
2023-01-13T00:50:06.344Z,100066.02
2023-01-13T00:53:00.476Z,100068.73
2023-01-13T00:55:50.580Z,100064.84
2023-01-13T00:58:43.320Z,100064.64
2023-01-13T01:01:33.805Z,100061.02
2023-01-13T01:04:31.141Z,100059.91
2023-01-13T01:07:21.182Z,100057.99
2023-01-13T01:10:15.041Z,100060.27
2023-01-13T01:13:04.831Z,100051.42
2023-01-13T01:16:00.663Z,100049.51
2023-01-13T01:18:52.691Z,100043.14
2023-01-13T01:21:44.017Z,100040.05
2023-01-13T01:24:36.722Z,100038.51
2023-01-13T01:27:36.574Z,100034.21
2023-01-13T01:30:34.710Z,100036.78
2023-01-13T01:34:28.222Z,100030.67
2023-01-13T01:36:51.723Z,100032.80
2023-01-13T01:39:42.137Z,100025.01
2023-01-13T01:43:09.750Z,100018.15
2023-01-13T01:46:07.679Z,100011.89
2023-01-13T01:49:06.590Z,100005.43
2023-01-13T01:52:03.021Z,100000.44
2023-01-13T01:55:23.364Z,99997.38
2023-01-13T01:58:22.428Z,99996.66
2023-01-13T02:01:15.515Z,99993.99
2023-01-13T02:04:11.916Z,99992.43
2023-01-13T02:07:09.294Z,99985.00
2023-01-13T02:10:12.199Z,99990.27
2023-01-13T02:13:05.847Z,99984.81
2023-01-13T02:16:24.812Z,99978.61
2023-01-13T02:19:43.071Z,99979.55
2023-01-13T02:22:52.676Z,99979.38
2023-01-13T02:26:04.909Z,99973.59
2023-01-13T02:29:32.859Z,99969.89
2023-01-13T02:32:43.463Z,99966.41
2023-01-13T02:35:36.069Z,99969.09
2023-01-13T02:38:41.699Z,99960.02
2023-01-13T02:42:00.329Z,99959.70
2023-01-13T02:45:06.574Z,99963.24
2023-01-13T02:48:01.246Z,99966.83
2023-01-13T02:50:48.562Z,99965.49
2023-01-13T02:54:32.155Z,99959.87
2023-01-13T02:57:05.029Z,99959.99
2023-01-13T03:00:41.468Z,99955.29
2023-01-13T03:03:40.189Z,99953.11
2023-01-13T03:06:49.033Z,99951.98
2023-01-13T03:09:45.396Z,99947.65
2023-01-13T03:12:52.549Z,99948.45
2023-01-13T03:15:43.540Z,99945.55
2023-01-13T03:18:51.301Z,99942.84
2023-01-13T03:21:50.137Z,99941.33
2023-01-13T03:24:43.390Z,99939.13
2023-01-13T03:27:42.187Z,99935.90
2023-01-13T03:30:48.345Z,99936.84
2023-01-13T03:33:45.875Z,99938.13
2023-01-13T03:36:40.398Z,99937.31
2023-01-13T03:39:38.204Z,99935.80
2023-01-13T03:43:05.214Z,99935.71
2023-01-13T03:46:03.676Z,99934.83
2023-01-13T03:49:03.305Z,99936.20
2023-01-13T03:51:58.729Z,99933.36
2023-01-13T03:55:05.388Z,99933.21
2023-01-13T03:58:16.857Z,99931.63
2023-01-13T04:01:15.369Z,99927.53
2023-01-13T04:04:09.520Z,99928.73
2023-01-13T04:07:12.260Z,99932.77
2023-01-13T04:10:06.942Z,99932.64
2023-01-13T04:13:05.865Z,99929.13
2023-01-13T04:16:00.477Z,99928.32
2023-01-13T04:18:54.918Z,99923.52
2023-01-13T04:21:44.336Z,99926.66
2023-01-13T04:24:40.053Z,99921.98
2023-01-13T04:27:37.566Z,99920.92
2023-01-13T04:30:28.177Z,99920.25
2023-01-13T04:33:19.880Z,99918.15
2023-01-13T04:36:12.029Z,99918.91
2023-01-13T04:39:07.421Z,99917.42
2023-01-13T04:42:01.379Z,99919.33
2023-01-13T04:44:51.635Z,99913.52
2023-01-13T04:48:11.507Z,99912.27
2023-01-13T04:51:10.963Z,99907.21
2023-01-13T04:54:20.675Z,99910.66
2023-01-13T04:57:14.872Z,99910.70
2023-01-13T05:00:17.742Z,99913.35
2023-01-13T05:03:13.354Z,99915.02
2023-01-13T05:06:13.175Z,99913.30
2023-01-13T05:09:29.374Z,99912.84
2023-01-13T05:12:40.733Z,99912.46
2023-01-13T05:15:49.779Z,99914.53
2023-01-13T05:18:43.276Z,99913.84
2023-01-13T05:22:07.042Z,99911.63
2023-01-13T05:25:19.452Z,99911.25
2023-01-13T05:28:41.088Z,99913.91
2023-01-13T05:34:54.129Z,99910.07
2023-01-13T05:38:00.859Z,99909.48
2023-01-13T05:41:11.240Z,99912.27
2023-01-13T05:44:11.200Z,99915.45
2023-01-13T05:46:53.938Z,99911.39
2023-01-13T05:49:55.668Z,99914.14
2023-01-13T05:52:50.257Z,99912.85
2023-01-13T05:55:47.825Z,99920.11
2023-01-13T05:58:45.185Z,99914.88
2023-01-13T06:01:45.357Z,99915.68
2023-01-13T06:04:28.477Z,99919.48
2023-01-13T06:07:19.047Z,99922.25
2023-01-13T06:10:21.696Z,99926.05
2023-01-13T06:13:30.691Z,99928.28
2023-01-13T06:16:20.711Z,99929.34
2023-01-13T06:19:21.076Z,99932.26
2023-01-13T06:22:21.605Z,99930.02
2023-01-13T06:25:31.439Z,99933.26
2023-01-13T06:28:07.326Z,99929.28
2023-01-13T06:31:02.984Z,99933.29
2023-01-13T06:33:58.231Z,99930.15
2023-01-13T06:37:04.230Z,99935.53
2023-01-13T06:40:01.765Z,99938.30
2023-01-13T06:43:20.254Z,99938.54
2023-01-13T06:46:12.035Z,99940.30
2023-01-13T06:49:15.745Z,99932.55
2023-01-13T06:52:09.487Z,99929.74
2023-01-13T06:55:50.560Z,99934.19
2023-01-13T06:59:07.449Z,99936.20
2023-01-13T07:01:47.124Z,99932.66
2023-01-13T07:04:42.511Z,99935.43
2023-01-13T07:07:40.882Z,99935.43
2023-01-13T07:10:37.270Z,99936.57
2023-01-13T07:13:53.032Z,99936.65
2023-01-13T07:16:46.915Z,99935.98
2023-01-13T07:19:37.688Z,99937.54
2023-01-13T07:22:37.336Z,99932.58
2023-01-13T07:25:27.873Z,99935.39
2023-01-13T07:28:25.486Z,99933.88
2023-01-13T07:31:16.440Z,99933.16
2023-01-13T07:34:31.052Z,99940.38
2023-01-13T07:37:21.196Z,99939.84
2023-01-13T07:40:35.078Z,99941.53
2023-01-13T07:43:35.248Z,99940.91
2023-01-13T07:46:51.218Z,99939.64
2023-01-13T07:49:41.477Z,99941.98
2023-01-13T07:52:31.493Z,99935.98
2023-01-13T07:55:23.120Z,99940.36
2023-01-13T07:58:14.189Z,99941.19
2023-01-13T08:01:13.425Z,99940.70
2023-01-13T08:04:19.243Z,99943.28
2023-01-13T08:07:18.596Z,99941.79
2023-01-13T08:10:11.046Z,99943.52
2023-01-13T08:13:20.435Z,99942.69
2023-01-13T08:16:13.277Z,99945.16
2023-01-13T08:19:27.664Z,99945.73
2023-01-13T08:22:18.890Z,99947.77
2023-01-13T08:26:04.445Z,99947.70
2023-01-13T08:28:14.421Z,99948.23
2023-01-13T08:31:08.248Z,99947.19
2023-01-13T08:34:02.576Z,99946.88
2023-01-13T08:36:52.735Z,99946.56
2023-01-13T08:39:45.174Z,99946.63
2023-01-13T08:42:35.414Z,99946.44
2023-01-13T08:45:29.100Z,99948.52
2023-01-13T08:48:19.204Z,99950.63
2023-01-13T08:51:17.162Z,99951.19
2023-01-13T08:54:09.789Z,99952.98
2023-01-13T08:57:02.914Z,99954.50
2023-01-13T08:59:53.140Z,99954.96
2023-01-13T09:02:49.032Z,99956.45
2023-01-13T09:05:32.691Z,99958.91
2023-01-13T09:08:24.251Z,99955.98
2023-01-13T09:11:40.524Z,99955.52
2023-01-13T09:14:33.128Z,99949.73
2023-01-13T09:17:33.380Z,99950.33
2023-01-13T09:20:35.047Z,99947.71
2023-01-13T09:23:59.957Z,99947.45
2023-01-13T09:26:50.129Z,99944.07
2023-01-13T09:30:51.930Z,99945.70
2023-01-13T09:33:33.701Z,99950.19
2023-01-13T09:36:46.397Z,99947.12
2023-01-13T09:39:37.375Z,99938.85
2023-01-13T09:43:07.081Z,99936.79
2023-01-13T09:46:38.356Z,99937.77
2023-01-13T09:49:40.822Z,99932.55
2023-01-13T09:52:43.062Z,99932.75
2023-01-13T09:56:23.217Z,99933.55
2023-01-13T09:58:50.168Z,99931.39
2023-01-13T10:02:01.905Z,99931.60
2023-01-13T10:05:12.031Z,99926.46
2023-01-13T10:08:12.548Z,99923.85
2023-01-13T10:11:31.269Z,99924.27
2023-01-13T10:14:34.851Z,99920.77
2023-01-13T10:18:02.730Z,99918.30
2023-01-13T10:21:10.436Z,99912.09
2023-01-13T10:24:29.302Z,99910.72
2023-01-13T10:27:44.858Z,99908.63
2023-01-13T10:30:40.737Z,99908.34
2023-01-13T10:33:47.474Z,99905.28
2023-01-13T10:37:40.741Z,99906.02
2023-01-13T10:41:01.251Z,99896.79
2023-01-13T10:44:18.825Z,99897.79
2023-01-13T10:47:42.729Z,99895.33
2023-01-13T10:50:59.339Z,99890.54
2023-01-13T10:53:59.372Z,99887.30
2023-01-13T10:57:20.282Z,99890.14
2023-01-13T11:00:47.535Z,99890.05
2023-01-13T11:04:04.246Z,99887.44
2023-01-13T11:07:49.739Z,99884.06
2023-01-13T11:10:49.687Z,99880.98
2023-01-13T11:14:02.885Z,99881.74
2023-01-13T11:17:01.313Z,99885.51
2023-01-13T11:20:15.668Z,99881.73
2023-01-13T11:24:04.196Z,99881.73
2023-01-13T11:27:00.304Z,99885.92
2023-01-13T11:30:24.002Z,99885.29
2023-01-13T11:33:45.245Z,99875.88
2023-01-13T11:36:51.037Z,99877.20
2023-01-13T11:39:59.925Z,99874.50
2023-01-13T11:43:27.344Z,99872.42
2023-01-13T11:46:22.176Z,99871.91
2023-01-13T11:49:49.781Z,99867.51
2023-01-13T11:53:38.347Z,99866.79
2023-01-13T11:57:04.098Z,99859.28
2023-01-13T12:00:30.299Z,99853.56
2023-01-13T12:03:33.711Z,99853.00
2023-01-13T12:06:56.011Z,99850.39
2023-01-13T12:10:23.397Z,99854.95
2023-01-13T12:13:35.071Z,99851.23
2023-01-13T12:16:52.726Z,99854.91
2023-01-13T12:19:59.161Z,99858.05
2023-01-13T12:23:31.964Z,99853.73
2023-01-13T12:27:05.567Z,99855.75
2023-01-13T12:30:36.795Z,99853.63
2023-01-13T12:33:39.895Z,99852.11
2023-01-13T12:36:41.959Z,99854.05
2023-01-13T12:39:45.288Z,99856.49
2023-01-13T12:43:07.949Z,99851.08
2023-01-13T12:46:49.064Z,99852.83
2023-01-13T12:51:03.947Z,99851.70
2023-01-13T12:54:01.795Z,99854.63
2023-01-13T12:57:03.323Z,99850.73
2023-01-13T13:00:29.476Z,99853.91
2023-01-13T13:03:43.648Z,99852.98
2023-01-13T13:06:38.364Z,99850.37
2023-01-13T13:09:54.149Z,99852.30
2023-01-13T13:13:19.968Z,99849.34
2023-01-13T13:16:52.464Z,99853.58
2023-01-13T13:20:03.287Z,99857.73
2023-01-13T13:22:58.091Z,99860.28
2023-01-13T13:26:07.979Z,99862.75
2023-01-13T13:29:51.142Z,99863.75
2023-01-13T13:33:07.976Z,99866.08
2023-01-13T13:37:04.279Z,99868.91
2023-01-13T13:40:41.316Z,99870.80
2023-01-13T13:44:46.431Z,99873.20
2023-01-13T13:48:01.862Z,99872.35
2023-01-13T13:51:08.269Z,99874.45
2023-01-13T13:54:04.669Z,99872.94
2023-01-13T13:57:02.781Z,99878.61
2023-01-13T14:00:06.823Z,99880.17
2023-01-13T14:03:19.597Z,99882.80
2023-01-13T14:06:41.845Z,99880.19
2023-01-13T14:10:16.402Z,99876.91
2023-01-13T14:13:40.850Z,99877.80
2023-01-13T14:17:09.364Z,99875.70
2023-01-13T14:20:31.298Z,99878.20
2023-01-13T14:24:48.165Z,99879.02
2023-01-13T14:28:25.585Z,99881.19
2023-01-13T14:32:15.194Z,99878.45
2023-01-13T14:35:53.813Z,99879.12
2023-01-13T14:39:38.716Z,99879.89
2023-01-13T14:43:39.559Z,99884.86
2023-01-13T14:47:53.942Z,99884.79
2023-01-13T14:50:54.365Z,99886.02
2023-01-13T14:54:12.983Z,99884.89
2023-01-13T14:57:33.482Z,99887.47
2023-01-13T15:01:10.494Z,99888.85
2023-01-13T15:04:34.774Z,99883.89
2023-01-13T15:08:14.727Z,99879.27
2023-01-13T15:11:25.852Z,99879.81
2023-01-13T15:14:49.364Z,99876.30
2023-01-13T15:18:21.526Z,99878.34
2023-01-13T15:21:35.142Z,99878.96
2023-01-13T15:25:10.006Z,99877.98
2023-01-13T15:28:36.058Z,99875.85
2023-01-13T15:32:05.447Z,99872.64
2023-01-13T15:35:38.328Z,99869.05
2023-01-13T15:39:05.840Z,99872.42
2023-01-13T15:43:17.607Z,99869.83
2023-01-13T15:47:20.241Z,99870.15
2023-01-13T15:51:20.290Z,99876.30
2023-01-13T15:54:50.561Z,99877.85
2023-01-13T15:58:28.097Z,99881.48
2023-01-13T16:01:59.788Z,99881.76
2023-01-13T16:05:55.591Z,99880.83
2023-01-13T16:09:35.626Z,99879.23
2023-01-13T16:12:45.532Z,99881.07
2023-01-13T16:15:40.377Z,99882.56
2023-01-13T16:18:46.884Z,99879.53
2023-01-13T16:21:46.855Z,99885.98
2023-01-13T16:25:10.426Z,99887.42
2023-01-13T16:28:28.105Z,99889.99
2023-01-13T16:31:32.924Z,99894.71
2023-01-13T16:34:24.057Z,99897.31
2023-01-13T16:37:37.664Z,99898.38
2023-01-13T16:40:32.781Z,99894.08
2023-01-13T16:43:43.744Z,99888.74
2023-01-13T16:47:06.678Z,99890.38
2023-01-13T16:50:31.546Z,99887.45
2023-01-13T16:53:24.008Z,99896.48
2023-01-13T16:56:40.029Z,99894.14
2023-01-13T16:59:38.081Z,99895.73
2023-01-13T17:02:39.369Z,99900.77
2023-01-13T17:05:54.433Z,99901.46
2023-01-13T17:09:18.443Z,99897.35
2023-01-13T17:12:11.086Z,99898.05
2023-01-13T17:15:28.633Z,99896.70
2023-01-13T17:18:20.146Z,99905.21
2023-01-13T17:21:11.129Z,99907.95
2023-01-13T17:24:05.200Z,99913.43
2023-01-13T17:26:58.102Z,99915.36
2023-01-13T17:29:51.283Z,99917.69
2023-01-13T17:33:01.785Z,99915.59
2023-01-13T17:36:18.532Z,99917.55
2023-01-13T17:39:14.944Z,99916.69
2023-01-13T17:42:05.424Z,99919.05
2023-01-13T17:45:15.476Z,99920.73
2023-01-13T17:48:07.971Z,99917.23
2023-01-13T17:51:24.566Z,99917.48
2023-01-13T17:54:17.526Z,99916.80
2023-01-13T17:57:12.471Z,99923.42
2023-01-13T18:00:30.876Z,99918.73
2023-01-13T18:03:38.594Z,99919.44
2023-01-13T18:06:59.708Z,99920.92
2023-01-13T18:10:35.038Z,99922.34
2023-01-13T18:13:35.688Z,99920.71
2023-01-13T18:16:59.532Z,99926.21
2023-01-13T18:20:23.967Z,99930.02
2023-01-13T18:23:40.124Z,99925.55
2023-01-13T18:27:40.696Z,99923.02
2023-01-13T18:30:47.170Z,99926.02
2023-01-13T18:34:16.377Z,99928.06
2023-01-13T18:37:37.401Z,99927.88
2023-01-13T18:40:51.378Z,99929.55
2023-01-13T18:44:04.592Z,99930.77
2023-01-13T18:47:01.308Z,99933.95
2023-01-13T18:49:57.851Z,99940.44
2023-01-13T18:53:22.533Z,99947.67
2023-01-13T18:56:17.017Z,99947.90
2023-01-13T18:59:11.631Z,99950.73
2023-01-13T19:02:35.656Z,99947.13
2023-01-13T19:05:31.344Z,99954.86
2023-01-13T19:08:22.467Z,99959.17
2023-01-13T19:12:21.483Z,99957.45
2023-01-13T19:15:20.141Z,99954.41
2023-01-13T19:18:22.729Z,99958.76
2023-01-13T19:21:37.667Z,99966.59
2023-01-13T19:24:49.208Z,99971.77
2023-01-13T19:28:26.666Z,99974.23
2023-01-13T19:31:23.354Z,99971.19
2023-01-13T19:35:20.198Z,99967.35
2023-01-13T19:38:21.011Z,99969.81
2023-01-13T19:41:40.384Z,99974.89
2023-01-13T19:45:10.002Z,99978.39
2023-01-13T19:48:25.893Z,99983.19
2023-01-13T19:51:26.637Z,99981.99
2023-01-13T19:54:54.291Z,99987.73
2023-01-13T19:58:23.514Z,99991.75
2023-01-13T20:01:21.191Z,99994.10
2023-01-13T20:05:02.682Z,99998.45
2023-01-13T20:08:07.190Z,99994.38
2023-01-13T20:11:50.857Z,100000.86
2023-01-13T20:15:11.137Z,100001.63
2023-01-13T20:18:13.926Z,100010.38
2023-01-13T20:21:14.915Z,100013.27
2023-01-13T20:24:35.348Z,100018.20
2023-01-13T20:28:27.733Z,100025.73
2023-01-13T20:31:52.882Z,100031.99
2023-01-13T20:35:07.926Z,100032.63
2023-01-13T20:38:47.966Z,100034.09
2023-01-13T20:42:27.663Z,100033.00
2023-01-13T20:45:42.028Z,100043.11
2023-01-13T20:48:32.152Z,100051.20
2023-01-13T20:51:44.118Z,100053.84
2023-01-13T20:54:38.989Z,100058.64
2023-01-13T20:57:46.583Z,100058.33
2023-01-13T21:00:36.757Z,100057.44
2023-01-13T21:04:19.057Z,100056.13
2023-01-13T21:07:25.510Z,100061.68
2023-01-13T21:10:44.036Z,100064.41
2023-01-13T21:13:58.866Z,100070.46
2023-01-13T21:17:05.307Z,100075.81
2023-01-13T21:20:24.942Z,100071.77
2023-01-13T21:24:19.363Z,100071.45
2023-01-13T21:27:13.981Z,100075.09
2023-01-13T21:30:19.636Z,100079.18
2023-01-13T21:33:36.586Z,100079.86
2023-01-13T21:36:34.149Z,100084.60
2023-01-13T21:39:49.912Z,100082.26
2023-01-13T21:43:09.389Z,100084.65
2023-01-13T21:46:45.347Z,100085.08
2023-01-13T21:50:00.727Z,100082.65
2023-01-13T21:52:42.842Z,100081.52
2023-01-13T21:55:43.817Z,100089.46
2023-01-13T21:59:15.843Z,100091.80
2023-01-13T22:02:41.268Z,100093.91
2023-01-13T22:06:00.534Z,100098.92
2023-01-13T22:09:00.623Z,100101.41
2023-01-13T22:11:52.744Z,100107.41
2023-01-13T22:14:46.201Z,100103.23
2023-01-13T22:17:43.095Z,100102.73
2023-01-13T22:20:45.570Z,100099.60
2023-01-13T22:24:09.653Z,100098.40
2023-01-13T22:27:44.120Z,100103.94
2023-01-13T22:30:42.797Z,100111.60
2023-01-13T22:33:48.955Z,100115.33
2023-01-13T22:36:44.734Z,100120.29
2023-01-13T22:40:19.408Z,100119.70
2023-01-13T22:43:12.467Z,100122.37
2023-01-13T22:46:19.737Z,100124.02
2023-01-13T22:49:13.884Z,100125.95
2023-01-13T22:52:17.658Z,100129.08
2023-01-13T22:55:47.679Z,100123.84
2023-01-13T22:58:46.984Z,100125.96
2023-01-13T23:01:50.299Z,100132.40
2023-01-13T23:05:02.123Z,100138.73
2023-01-13T23:08:12.128Z,100146.62
2023-01-13T23:11:21.116Z,100143.12
2023-01-13T23:14:35.958Z,100143.08
2023-01-13T23:17:34.424Z,100145.85
2023-01-13T23:20:31.045Z,100147.05
2023-01-13T23:23:42.882Z,100150.31
2023-01-13T23:26:45.779Z,100148.73
2023-01-13T23:29:43.870Z,100148.33
2023-01-13T23:32:37.606Z,100152.30
2023-01-13T23:36:05.688Z,100153.96
2023-01-13T23:39:38.729Z,100152.19
2023-01-13T23:42:38.034Z,100152.52
2023-01-13T23:45:27.453Z,100149.95
2023-01-13T23:48:24.616Z,100154.05
2023-01-13T23:51:48.227Z,100159.83
2023-01-13T23:54:44.256Z,100156.67
2023-01-13T23:57:38.234Z,100154.20
